sensor_id;sensor_type;location;lat;lon;timestamp;pressure;altitude;pressure_sealevel;temperature;humidity
77590;BME280;66746;51.328;12.332;2023-04-01T00:00:14;98633.25;;;8.67;94.21
77590;BME280;66746;51.328;12.332;2023-04-01T00:02:41;98635.19;;;8.65;93.76
77590;BME280;66746;51.328;12.332;2023-04-01T00:05:08;98637.88;;;8.65;93.54
77590;BME280;66746;51.328;12.332;2023-04-01T00:07:35;98642.41;;;8.64;93.75
77590;BME280;66746;51.328;12.332;2023-04-01T00:10:01;98627.06;;;8.65;94.10
77590;BME280;66746;51.328;12.332;2023-04-01T00:12:28;98626.19;;;8.64;93.33
77590;BME280;66746;51.328;12.332;2023-04-01T00:14:55;98623.41;;;8.66;93.72
77590;BME280;66746;51.328;12.332;2023-04-01T00:17:22;98633.25;;;8.67;93.49
77590;BME280;66746;51.328;12.332;2023-04-01T00:19:48;98633.25;;;8.67;93.68
77590;BME280;66746;51.328;12.332;2023-04-01T00:22:15;98637.69;;;8.68;93.67
77590;BME280;66746;51.328;12.332;2023-04-01T00:24:42;98631.50;;;8.66;94.05
77590;BME280;66746;51.328;12.332;2023-04-01T00:27:08;98636.91;;;8.66;93.64
77590;BME280;66746;51.328;12.332;2023-04-01T00:29:35;98633.31;;;8.65;94.13
77590;BME280;66746;51.328;12.332;2023-04-01T00:32:03;98639.72;;;8.64;94.36
77590;BME280;66746;51.328;12.332;2023-04-01T00:34:29;98632.63;;;8.62;94.67
77590;BME280;66746;51.328;12.332;2023-04-01T00:36:56;98635.44;;;8.60;94.23
77590;BME280;66746;51.328;12.332;2023-04-01T00:39:22;98631.84;;;8.60;94.63
77590;BME280;66746;51.328;12.332;2023-04-01T00:41:49;98638.38;;;8.56;95.18
77590;BME280;66746;51.328;12.332;2023-04-01T00:44:18;98627.59;;;8.56;95.22
77590;BME280;66746;51.328;12.332;2023-04-01T00:46:45;98626.66;;;8.57;95.22
77590;BME280;66746;51.328;12.332;2023-04-01T00:49:14;98625.84;;;8.55;95.11
77590;BME280;66746;51.328;12.332;2023-04-01T00:51:44;98622.38;;;8.53;95.05
77590;BME280;66746;51.328;12.332;2023-04-01T00:54:13;98626.19;;;8.49;95.20
77590;BME280;66746;51.328;12.332;2023-04-01T00:56:45;98625.22;;;8.50;95.73
77590;BME280;66746;51.328;12.332;2023-04-01T00:59:15;98628.91;;;8.49;95.46
77590;BME280;66746;51.328;12.332;2023-04-01T01:01:45;98625.22;;;8.50;96.02
77590;BME280;66746;51.328;12.332;2023-04-01T01:04:23;98626.19;;;8.49;95.22
77590;BME280;66746;51.328;12.332;2023-04-01T01:06:56;98621.16;;;8.43;95.19
77590;BME280;66746;51.328;12.332;2023-04-01T01:09:31;98628.31;;;8.44;96.35
77590;BME280;66746;51.328;12.332;2023-04-01T01:12:05;98630.03;;;8.45;95.53
77590;BME280;66746;51.328;12.332;2023-04-01T01:14:45;98621.84;;;8.46;95.40
77590;BME280;66746;51.328;12.332;2023-04-01T01:17:21;98622.72;;;8.47;95.24
77590;BME280;66746;51.328;12.332;2023-04-01T01:20:14;98621.75;;;8.48;95.21
77590;BME280;66746;51.328;12.332;2023-04-01T01:22:55;98622.53;;;8.50;94.04
77590;BME280;66746;51.328;12.332;2023-04-01T01:25:32;98625.06;;;8.53;94.22
77590;BME280;66746;51.328;12.332;2023-04-01T01:28:19;98634.06;;;8.53;93.81
77590;BME280;66746;51.328;12.332;2023-04-01T01:30:51;98624.03;;;8.55;93.86
77590;BME280;66746;51.328;12.332;2023-04-01T01:33:41;98615.06;;;8.55;93.96
77590;BME280;66746;51.328;12.332;2023-04-01T01:36:12;98616.78;;;8.56;94.06
77590;BME280;66746;51.328;12.332;2023-04-01T01:38:40;98616.63;;;8.59;93.70
77590;BME280;66746;51.328;12.332;2023-04-01T01:41:07;98615.75;;;8.58;93.60
77590;BME280;66746;51.328;12.332;2023-04-01T01:43:39;98620.88;;;8.63;92.94
77590;BME280;66746;51.328;12.332;2023-04-01T01:46:09;98619.75;;;8.67;92.70
77590;BME280;66746;51.328;12.332;2023-04-01T01:48:39;98616.06;;;8.68;92.04
77590;BME280;66746;51.328;12.332;2023-04-01T01:51:09;98617.84;;;8.69;92.28
77590;BME280;66746;51.328;12.332;2023-04-01T01:53:36;98621.47;;;8.68;92.88
77590;BME280;66746;51.328;12.332;2023-04-01T01:56:03;98616.88;;;8.70;91.34
77590;BME280;66746;51.328;12.332;2023-04-01T01:58:36;98622.16;;;8.71;92.13
77590;BME280;66746;51.328;12.332;2023-04-01T02:01:06;98619.56;;;8.70;92.00
77590;BME280;66746;51.328;12.332;2023-04-01T02:03:35;98614.16;;;8.70;91.92
77590;BME280;66746;51.328;12.332;2023-04-01T02:06:04;98622.38;;;8.68;91.51
77590;BME280;66746;51.328;12.332;2023-04-01T02:08:36;98618.88;;;8.66;91.60
77590;BME280;66746;51.328;12.332;2023-04-01T02:11:08;98622.38;;;8.68;92.77
77590;BME280;66746;51.328;12.332;2023-04-01T02:13:41;98624.09;;;8.69;91.71
77590;BME280;66746;51.328;12.332;2023-04-01T02:16:12;98619.56;;;8.70;91.40
77590;BME280;66746;51.328;12.332;2023-04-01T02:18:41;98621.47;;;8.68;91.68
77590;BME280;66746;51.328;12.332;2023-04-01T02:21:10;98627.56;;;8.71;90.82
77590;BME280;66746;51.328;12.332;2023-04-01T02:23:39;98621.31;;;8.71;92.18
77590;BME280;66746;51.328;12.332;2023-04-01T02:26:07;98624.81;;;8.73;90.95
77590;BME280;66746;51.328;12.332;2023-04-01T02:28:38;98626.72;;;8.71;91.80
77590;BME280;66746;51.328;12.332;2023-04-01T02:31:08;98631.34;;;8.69;92.41
77590;BME280;66746;51.328;12.332;2023-04-01T02:33:36;98626.88;;;8.68;91.13
77590;BME280;66746;51.328;12.332;2023-04-01T02:36:04;98619.75;;;8.67;91.70
77590;BME280;66746;51.328;12.332;2023-04-01T02:38:31;98630.56;;;8.67;92.36
77590;BME280;66746;51.328;12.332;2023-04-01T02:41:00;98623.41;;;8.66;90.91
77590;BME280;66746;51.328;12.332;2023-04-01T02:43:28;98630.56;;;8.67;91.70
77590;BME280;66746;51.328;12.332;2023-04-01T02:45:55;98629.78;;;8.65;92.82
77590;BME280;66746;51.328;12.332;2023-04-01T02:48:22;98635.97;;;8.67;91.21
77590;BME280;66746;51.328;12.332;2023-04-01T02:50:48;98632.28;;;8.68;91.61
77590;BME280;66746;51.328;12.332;2023-04-01T02:53:15;98637.59;;;8.69;90.46
77590;BME280;66746;51.328;12.332;2023-04-01T02:55:42;98635.00;;;8.68;90.76
77590;BME280;66746;51.328;12.332;2023-04-01T02:58:09;98633.16;;;8.68;90.41
77590;BME280;66746;51.328;12.332;2023-04-01T03:00:36;98636.75;;;8.69;90.43
77590;BME280;66746;51.328;12.332;2023-04-01T03:03:03;98631.41;;;8.67;89.67
77590;BME280;66746;51.328;12.332;2023-04-01T03:05:29;98638.56;;;8.68;90.43
77590;BME280;66746;51.328;12.332;2023-04-01T03:07:56;98627.75;;;8.68;90.58
77590;BME280;66746;51.328;12.332;2023-04-01T03:10:23;98640.13;;;8.72;89.38
77590;BME280;66746;51.328;12.332;2023-04-01T03:12:49;98643.63;;;8.74;89.86
77590;BME280;66746;51.328;12.332;2023-04-01T03:15:17;98641.03;;;8.73;90.15
77590;BME280;66746;51.328;12.332;2023-04-01T03:17:44;98640.25;;;8.71;89.54
77590;BME280;66746;51.328;12.332;2023-04-01T03:20:12;98633.84;;;8.72;90.66
77590;BME280;66746;51.328;12.332;2023-04-01T03:22:38;98641.19;;;8.70;90.18
77590;BME280;66746;51.328;12.332;2023-04-01T03:25:09;98635.00;;;8.68;90.52
77590;BME280;66746;51.328;12.332;2023-04-01T03:27:36;98639.63;;;8.66;90.80
77590;BME280;66746;51.328;12.332;2023-04-01T03:30:04;98635.19;;;8.65;91.19
77590;BME280;66746;51.328;12.332;2023-04-01T03:32:38;98636.03;;;8.65;90.15
77590;BME280;66746;51.328;12.332;2023-04-01T03:35:05;98646.00;;;8.65;90.96
77590;BME280;66746;51.328;12.332;2023-04-01T03:37:34;98640.59;;;8.65;89.82
77590;BME280;66746;51.328;12.332;2023-04-01T03:40:00;98639.63;;;8.66;90.12
77590;BME280;66746;51.328;12.332;2023-04-01T03:42:26;98643.28;;;8.65;90.86
77590;BME280;66746;51.328;12.332;2023-04-01T03:44:53;98648.84;;;8.62;90.77
77590;BME280;66746;51.328;12.332;2023-04-01T03:47:19;98641.53;;;8.64;90.76
77590;BME280;66746;51.328;12.332;2023-04-01T03:49:47;98654.19;;;8.63;91.92
77590;BME280;66746;51.328;12.332;2023-04-01T03:52:14;98650.75;;;8.60;91.13
77590;BME280;66746;51.328;12.332;2023-04-01T03:54:40;98652.53;;;8.61;91.13
77590;BME280;66746;51.328;12.332;2023-04-01T03:57:07;98654.44;;;8.59;90.76
77590;BME280;66746;51.328;12.332;2023-04-01T03:59:34;98657.94;;;8.61;90.44
77590;BME280;66746;51.328;12.332;2023-04-01T04:02:01;98655.22;;;8.61;91.27
77590;BME280;66746;51.328;12.332;2023-04-01T04:04:28;98659.84;;;8.59;91.91
77590;BME280;66746;51.328;12.332;2023-04-01T04:06:56;98668.75;;;8.61;91.64
77590;BME280;66746;51.328;12.332;2023-04-01T04:09:24;98661.56;;;8.60;90.96
77590;BME280;66746;51.328;12.332;2023-04-01T04:11:51;98662.56;;;8.59;91.03
77590;BME280;66746;51.328;12.332;2023-04-01T04:14:17;98659.84;;;8.59;91.85
77590;BME280;66746;51.328;12.332;2023-04-01T04:16:45;98670.81;;;8.56;91.13
77590;BME280;66746;51.328;12.332;2023-04-01T04:19:11;98663.69;;;8.55;91.18
77590;BME280;66746;51.328;12.332;2023-04-01T04:21:39;98669.00;;;8.56;91.20
77590;BME280;66746;51.328;12.332;2023-04-01T04:24:08;98668.19;;;8.54;91.52
77590;BME280;66746;51.328;12.332;2023-04-01T04:29:39;98670.13;;;8.52;91.60
77590;BME280;66746;51.328;12.332;2023-04-01T04:32:06;98674.63;;;8.52;91.84
77590;BME280;66746;51.328;12.332;2023-04-01T04:34:33;98679.25;;;8.50;92.27
77590;BME280;66746;51.328;12.332;2023-04-01T04:36:59;98680.41;;;8.46;92.90
77590;BME280;66746;51.328;12.332;2023-04-01T04:39:31;98676.19;;;8.40;92.83
77590;BME280;66746;51.328;12.332;2023-04-01T04:41:58;98669.94;;;8.40;93.24
77590;BME280;66746;51.328;12.332;2023-04-01T04:44:24;98690.69;;;8.39;93.95
77590;BME280;66746;51.328;12.332;2023-04-01T04:46:50;98681.88;;;8.36;92.78
77590;BME280;66746;51.328;12.332;2023-04-01T04:49:17;98684.72;;;8.33;93.65
77590;BME280;66746;51.328;12.332;2023-04-01T04:51:44;98686.50;;;8.34;94.68
77590;BME280;66746;51.328;12.332;2023-04-01T04:54:13;98682.47;;;8.25;94.06
77590;BME280;66746;51.328;12.332;2023-04-01T04:57:01;98692.03;;;8.31;93.69
77590;BME280;66746;51.328;12.332;2023-04-01T04:59:31;98688.56;;;8.29;94.31
77590;BME280;66746;51.328;12.332;2023-04-01T05:02:06;98686.91;;;8.26;94.54
77590;BME280;66746;51.328;12.332;2023-04-01T05:04:34;98694.94;;;8.28;94.29
77590;BME280;66746;51.328;12.332;2023-04-01T05:07:01;98687.63;;;8.30;95.06
77590;BME280;66746;51.328;12.332;2023-04-01T05:09:28;98693.81;;;8.32;94.66
77590;BME280;66746;51.328;12.332;2023-04-01T05:11:54;98692.03;;;8.31;94.43
77590;BME280;66746;51.328;12.332;2023-04-01T05:14:24;98693.81;;;8.32;93.88
77590;BME280;66746;51.328;12.332;2023-04-01T05:16:57;98699.22;;;8.32;94.12
77590;BME280;66746;51.328;12.332;2023-04-01T05:19:24;98707.22;;;8.33;94.01
77590;BME280;66746;51.328;12.332;2023-04-01T05:21:51;98704.44;;;8.35;94.08
77590;BME280;66746;51.328;12.332;2023-04-01T05:24:17;98707.75;;;8.40;93.33
77590;BME280;66746;51.328;12.332;2023-04-01T05:26:44;98702.09;;;8.44;94.05
77590;BME280;66746;51.328;12.332;2023-04-01T05:29:10;98705.47;;;8.48;93.89
77590;BME280;66746;51.328;12.332;2023-04-01T05:31:39;98705.13;;;8.54;94.14
77590;BME280;66746;51.328;12.332;2023-04-01T05:34:06;98694.63;;;8.49;94.08
77590;BME280;66746;51.328;12.332;2023-04-01T05:36:32;98711.34;;;8.56;92.64
77590;BME280;66746;51.328;12.332;2023-04-01T05:38:59;98710.53;;;8.54;93.46
77590;BME280;66746;51.328;12.332;2023-04-01T05:41:26;98709.59;;;8.55;93.07
77590;BME280;66746;51.328;12.332;2023-04-01T05:43:53;98706.91;;;8.55;93.69
77590;BME280;66746;51.328;12.332;2023-04-01T05:46:58;98710.53;;;8.54;92.43
77590;BME280;66746;51.328;12.332;2023-04-01T05:49:26;98709.50;;;8.56;93.10
77590;BME280;66746;51.328;12.332;2023-04-01T05:51:54;98711.28;;;8.57;93.59
77590;BME280;66746;51.328;12.332;2023-04-01T05:54:21;98709.34;;;8.59;93.21
77590;BME280;66746;51.328;12.332;2023-04-01T05:56:47;98712.91;;;8.60;93.30
77590;BME280;66746;51.328;12.332;2023-04-01T05:59:14;98715.59;;;8.60;93.87
77590;BME280;66746;51.328;12.332;2023-04-01T06:01:41;98718.06;;;8.64;93.57
77590;BME280;66746;51.328;12.332;2023-04-01T06:04:13;98713.53;;;8.65;93.36
77590;BME280;66746;51.328;12.332;2023-04-01T06:06:40;98723.03;;;8.72;93.55
77590;BME280;66746;51.328;12.332;2023-04-01T06:09:14;98723.66;;;8.77;92.60
77590;BME280;66746;51.328;12.332;2023-04-01T06:12:03;98719.81;;;8.81;92.88
77590;BME280;66746;51.328;12.332;2023-04-01T06:14:49;98721.22;;;8.88;92.87
77590;BME280;66746;51.328;12.332;2023-04-01T06:17:26;98726.97;;;8.98;93.13
77590;BME280;66746;51.328;12.332;2023-04-01T06:20:05;98733.25;;;8.98;91.93
77590;BME280;66746;51.328;12.332;2023-04-01T06:25:54;98731.34;;;9.00;90.90
77590;BME280;66746;51.328;12.332;2023-04-01T06:28:44;98725.72;;;9.03;91.21
77590;BME280;66746;51.328;12.332;2023-04-01T06:31:24;98740.66;;;9.10;92.59
77590;BME280;66746;51.328;12.332;2023-04-01T06:34:04;98732.34;;;9.13;92.11
77590;BME280;66746;51.328;12.332;2023-04-01T06:36:44;98734.47;;;9.08;91.08
77590;BME280;66746;51.328;12.332;2023-04-01T06:42:15;98739.34;;;9.17;92.13
77590;BME280;66746;51.328;12.332;2023-04-01T06:44:55;98745.28;;;9.24;92.45
77590;BME280;66746;51.328;12.332;2023-04-01T06:48:01;98746.56;;;9.32;92.89
77590;BME280;66746;51.328;12.332;2023-04-01T06:51:05;98740.09;;;9.35;91.25
77590;BME280;66746;51.328;12.332;2023-04-01T06:54:02;98747.16;;;9.37;91.63
77590;BME280;66746;51.328;12.332;2023-04-01T06:56:51;98750.47;;;9.42;90.86
77590;BME280;66746;51.328;12.332;2023-04-01T06:59:25;98743.22;;;9.43;89.89
77590;BME280;66746;51.328;12.332;2023-04-01T07:01:52;98744.34;;;9.54;91.49
77590;BME280;66746;51.328;12.332;2023-04-01T07:04:23;98742.22;;;9.59;90.16
77590;BME280;66746;51.328;12.332;2023-04-01T07:06:54;98735.41;;;9.68;89.82
77590;BME280;66746;51.328;12.332;2023-04-01T07:09:26;98743.41;;;9.69;89.12
77590;BME280;66746;51.328;12.332;2023-04-01T07:12:19;98743.66;;;9.80;89.39
77590;BME280;66746;51.328;12.332;2023-04-01T07:15:15;98751.06;;;9.93;89.96
77590;BME280;66746;51.328;12.332;2023-04-01T07:17:44;98747.56;;;9.91;89.25
77590;BME280;66746;51.328;12.332;2023-04-01T07:20:17;98743.09;;;9.90;89.40
77590;BME280;66746;51.328;12.332;2023-04-01T07:22:48;98756.53;;;9.91;89.29
77590;BME280;66746;51.328;12.332;2023-04-01T07:25:48;98751.78;;;9.80;86.90
77590;BME280;66746;51.328;12.332;2023-04-01T07:28:43;98749.44;;;9.74;86.54
77590;BME280;66746;51.328;12.332;2023-04-01T07:31:30;98761.06;;;9.76;85.81
77590;BME280;66746;51.328;12.332;2023-04-01T07:34:07;98753.78;;;9.77;86.61
77590;BME280;66746;51.328;12.332;2023-04-01T07:36:39;98773.06;;;9.87;84.91
77590;BME280;66746;51.328;12.332;2023-04-01T07:39:16;98760.69;;;9.97;86.84
77590;BME280;66746;51.328;12.332;2023-04-01T07:42:09;98764.25;;;10.13;84.87
77590;BME280;66746;51.328;12.332;2023-04-01T07:44:45;98764.69;;;10.35;86.80
77590;BME280;66746;51.328;12.332;2023-04-01T07:47:25;98764.22;;;10.42;84.88
77590;BME280;66746;51.328;12.332;2023-04-01T07:50:04;98768.88;;;10.54;84.50
77590;BME280;66746;51.328;12.332;2023-04-01T07:52:40;98766.66;;;10.61;85.88
77590;BME280;66746;51.328;12.332;2023-04-01T07:55:21;98769.94;;;10.66;85.15
77590;BME280;66746;51.328;12.332;2023-04-01T07:57:57;98774.19;;;10.56;84.10
77590;BME280;66746;51.328;12.332;2023-04-01T08:00:38;98784.22;;;10.40;82.15
77590;BME280;66746;51.328;12.332;2023-04-01T08:03:35;98784.13;;;10.27;79.70
77590;BME280;66746;51.328;12.332;2023-04-01T08:06:10;98778.22;;;10.21;82.52
77590;BME280;66746;51.328;12.332;2023-04-01T08:08:48;98799.72;;;10.24;82.94
77590;BME280;66746;51.328;12.332;2023-04-01T08:11:46;98776.78;;;10.29;82.42
77590;BME280;66746;51.328;12.332;2023-04-01T08:14:43;98796.03;;;10.39;82.96
77590;BME280;66746;51.328;12.332;2023-04-01T08:17:42;98789.94;;;10.49;82.12
77590;BME280;66746;51.328;12.332;2023-04-01T08:20:25;98784.06;;;10.71;81.07
77590;BME280;66746;51.328;12.332;2023-04-01T08:22:58;98788.31;;;10.75;82.63
77590;BME280;66746;51.328;12.332;2023-04-01T08:25:33;98797.81;;;10.82;79.52
77590;BME280;66746;51.328;12.332;2023-04-01T08:28:09;98795.50;;;10.76;79.23
77590;BME280;66746;51.328;12.332;2023-04-01T08:30:43;98793.94;;;10.86;79.79
77590;BME280;66746;51.328;12.332;2023-04-01T08:33:17;98793.72;;;10.89;79.92
77590;BME280;66746;51.328;12.332;2023-04-01T08:35:53;98798.97;;;10.92;81.41
77590;BME280;66746;51.328;12.332;2023-04-01T08:38:24;98799.03;;;11.05;80.16
77590;BME280;66746;51.328;12.332;2023-04-01T08:40:59;98796.59;;;11.14;82.55
77590;BME280;66746;51.328;12.332;2023-04-01T08:43:59;98806.00;;;11.09;79.35
77590;BME280;66746;51.328;12.332;2023-04-01T08:46:51;98809.41;;;11.12;77.90
77590;BME280;66746;51.328;12.332;2023-04-01T08:49:32;98803.13;;;11.12;80.05
77590;BME280;66746;51.328;12.332;2023-04-01T08:55:17;98805.13;;;11.22;77.81
77590;BME280;66746;51.328;12.332;2023-04-01T08:58:27;98803.94;;;11.26;77.60
77590;BME280;66746;51.328;12.332;2023-04-01T09:01:13;98796.72;;;11.13;78.72
77590;BME280;66746;51.328;12.332;2023-04-01T09:04:03;98787.63;;;11.14;81.71
77590;BME280;66746;51.328;12.332;2023-04-01T09:06:44;98800.41;;;11.12;78.31
77590;BME280;66746;51.328;12.332;2023-04-01T09:09:37;98792.66;;;11.20;78.63
77590;BME280;66746;51.328;12.332;2023-04-01T09:12:35;98796.59;;;11.28;79.69
77590;BME280;66746;51.328;12.332;2023-04-01T09:15:16;98800.28;;;11.27;78.88
77590;BME280;66746;51.328;12.332;2023-04-01T09:18:12;98796.09;;;11.22;75.33
77590;BME280;66746;51.328;12.332;2023-04-01T09:21:08;98807.44;;;11.28;76.34
77590;BME280;66746;51.328;12.332;2023-04-01T09:23:53;98800.06;;;11.30;75.88
77590;BME280;66746;51.328;12.332;2023-04-01T09:26:41;98796.41;;;11.31;75.84
77590;BME280;66746;51.328;12.332;2023-04-01T09:29:24;98801.22;;;11.40;76.77
77590;BME280;66746;51.328;12.332;2023-04-01T09:32:26;98807.72;;;11.38;75.80
77590;BME280;66746;51.328;12.332;2023-04-01T09:35:21;98806.84;;;11.37;77.81
77590;BME280;66746;51.328;12.332;2023-04-01T09:37:54;98806.00;;;11.23;77.97
77590;BME280;66746;51.328;12.332;2023-04-01T09:40:37;98809.97;;;11.31;78.47
77590;BME280;66746;51.328;12.332;2023-04-01T09:43:28;98816.97;;;11.21;76.36
77590;BME280;66746;51.328;12.332;2023-04-01T09:46:10;98811.41;;;11.37;77.89
77590;BME280;66746;51.328;12.332;2023-04-01T09:48:50;98812.38;;;11.36;75.40
77590;BME280;66746;51.328;12.332;2023-04-01T09:51:30;98811.00;;;11.43;77.08
77590;BME280;66746;51.328;12.332;2023-04-01T09:54:13;98811.69;;;11.32;78.17
77590;BME280;66746;51.328;12.332;2023-04-01T09:57:07;98807.84;;;11.22;76.69
77590;BME280;66746;51.328;12.332;2023-04-01T10:00:07;98808.94;;;11.20;78.19
77590;BME280;66746;51.328;12.332;2023-04-01T10:03:13;98819.47;;;11.10;77.97
77590;BME280;66746;51.328;12.332;2023-04-01T10:06:17;98815.59;;;11.14;78.14
77590;BME280;66746;51.328;12.332;2023-04-01T10:18:19;98818.28;;;11.42;79.67
77590;BME280;66746;51.328;12.332;2023-04-01T10:21:00;98817.47;;;11.54;78.22
77590;BME280;66746;51.328;12.332;2023-04-01T10:24:03;98809.69;;;11.63;78.19
77590;BME280;66746;51.328;12.332;2023-04-01T10:26:50;98816.38;;;11.71;78.38
77590;BME280;66746;51.328;12.332;2023-04-01T10:36:35;98812.81;;;11.56;78.64
77590;BME280;66746;51.328;12.332;2023-04-01T10:46:19;98825.53;;;11.42;74.30
77590;BME280;66746;51.328;12.332;2023-04-01T10:49:33;98820.09;;;11.42;72.02
77590;BME280;66746;51.328;12.332;2023-04-01T10:52:28;98822.53;;;11.46;72.97
77590;BME280;66746;51.328;12.332;2023-04-01T10:59:09;98819.56;;;11.64;73.64
77590;BME280;66746;51.328;12.332;2023-04-01T11:02:36;98820.09;;;11.83;71.47
77590;BME280;66746;51.328;12.332;2023-04-01T11:06:03;98819.09;;;11.98;71.13
77590;BME280;66746;51.328;12.332;2023-04-01T11:12:14;98816.09;;;12.15;71.00
77590;BME280;66746;51.328;12.332;2023-04-01T11:15:09;98819.16;;;12.23;72.92
77590;BME280;66746;51.328;12.332;2023-04-01T11:18:02;98823.06;;;12.19;71.80
77590;BME280;66746;51.328;12.332;2023-04-01T11:20:45;98817.41;;;12.22;70.53
77590;BME280;66746;51.328;12.332;2023-04-01T11:26:49;98827.88;;;12.53;70.54
77590;BME280;66746;51.328;12.332;2023-04-01T11:29:52;98826.25;;;12.88;68.86
77590;BME280;66746;51.328;12.332;2023-04-01T11:32:43;98832.47;;;13.03;70.91
77590;BME280;66746;51.328;12.332;2023-04-01T11:35:28;98821.81;;;13.00;69.62
77590;BME280;66746;51.328;12.332;2023-04-01T11:38:09;98825.63;;;12.85;70.15
77590;BME280;66746;51.328;12.332;2023-04-01T11:40:47;98830.50;;;12.67;72.69
77590;BME280;66746;51.328;12.332;2023-04-01T11:43:39;98833.31;;;12.53;70.03
77590;BME280;66746;51.328;12.332;2023-04-01T11:46:42;98831.38;;;12.55;73.40
77590;BME280;66746;51.328;12.332;2023-04-01T11:49:25;98846.06;;;12.53;75.97
77590;BME280;66746;51.328;12.332;2023-04-01T11:52:20;98848.63;;;12.29;76.34
77590;BME280;66746;51.328;12.332;2023-04-01T11:54:59;98856.03;;;12.00;76.87
77590;BME280;66746;51.328;12.332;2023-04-01T11:57:43;98855.00;;;11.89;77.45
77590;BME280;66746;51.328;12.332;2023-04-01T12:00:22;98852.69;;;11.83;79.22
77590;BME280;66746;51.328;12.332;2023-04-01T12:03:05;98854.56;;;11.82;78.78
77590;BME280;66746;51.328;12.332;2023-04-01T12:05:42;98859.88;;;11.84;79.77
77590;BME280;66746;51.328;12.332;2023-04-01T12:08:24;98858.91;;;11.85;79.10
77590;BME280;66746;51.328;12.332;2023-04-01T12:10:58;98855.22;;;11.86;80.08
77590;BME280;66746;51.328;12.332;2023-04-01T12:13:32;98850.50;;;11.75;79.21
77590;BME280;66746;51.328;12.332;2023-04-01T12:16:16;98857.56;;;11.64;79.30
77590;BME280;66746;51.328;12.332;2023-04-01T12:18:52;98857.81;;;11.46;80.08
77590;BME280;66746;51.328;12.332;2023-04-01T12:21:25;98866.34;;;11.40;79.56
77590;BME280;66746;51.328;12.332;2023-04-01T12:24:15;98862.38;;;11.32;78.50
77590;BME280;66746;51.328;12.332;2023-04-01T12:27:05;98870.63;;;11.30;78.72
77590;BME280;66746;51.328;12.332;2023-04-01T12:29:53;98864.63;;;11.25;78.32
77590;BME280;66746;51.328;12.332;2023-04-01T12:32:30;98868.56;;;11.34;77.76
77590;BME280;66746;51.328;12.332;2023-04-01T12:35:29;98872.44;;;11.44;78.28
77590;BME280;66746;51.328;12.332;2023-04-01T12:38:14;98869.06;;;11.40;77.80
77590;BME280;66746;51.328;12.332;2023-04-01T12:40:54;98869.63;;;11.45;74.27
77590;BME280;66746;51.328;12.332;2023-04-01T12:43:45;98874.47;;;11.54;76.46
77590;BME280;66746;51.328;12.332;2023-04-01T12:46:22;98879.28;;;11.64;77.21
77590;BME280;66746;51.328;12.332;2023-04-01T12:49:06;98877.38;;;11.66;74.50
77590;BME280;66746;51.328;12.332;2023-04-01T12:51:42;98888.06;;;11.69;75.05
77590;BME280;66746;51.328;12.332;2023-04-01T12:54:38;98889.19;;;11.65;75.90
77590;BME280;66746;51.328;12.332;2023-04-01T12:57:22;98888.13;;;11.67;76.95
77590;BME280;66746;51.328;12.332;2023-04-01T13:00:09;98888.44;;;11.63;76.47
77590;BME280;66746;51.328;12.332;2023-04-01T13:02:47;98893.09;;;11.61;77.68
77590;BME280;66746;51.328;12.332;2023-04-01T13:05:30;98896.41;;;11.66;78.11
77590;BME280;66746;51.328;12.332;2023-04-01T13:08:10;98902.06;;;11.61;78.12
77590;BME280;66746;51.328;12.332;2023-04-01T13:10:54;98901.22;;;11.61;77.58
77590;BME280;66746;51.328;12.332;2023-04-01T13:13:50;98896.78;;;11.45;76.21
77590;BME280;66746;51.328;12.332;2023-04-01T13:16:21;98901.41;;;11.57;79.01
77590;BME280;66746;51.328;12.332;2023-04-01T13:18:56;98898.31;;;11.64;78.27
77590;BME280;66746;51.328;12.332;2023-04-01T13:21:33;98903.84;;;11.62;76.49
77590;BME280;66746;51.328;12.332;2023-04-01T13:24:11;98903.06;;;11.60;79.55
77590;BME280;66746;51.328;12.332;2023-04-01T13:26:52;98905.88;;;11.58;77.73
77590;BME280;66746;51.328;12.332;2023-04-01T13:29:25;98900.56;;;11.57;79.15
77590;BME280;66746;51.328;12.332;2023-04-01T13:32:04;98902.91;;;11.49;78.59
77590;BME280;66746;51.328;12.332;2023-04-01T13:34:42;98912.88;;;11.48;79.82
77590;BME280;66746;51.328;12.332;2023-04-01T13:37:32;98909.50;;;11.45;80.99
77590;BME280;66746;51.328;12.332;2023-04-01T13:40:17;98909.78;;;11.40;83.43
77590;BME280;66746;51.328;12.332;2023-04-01T13:42:51;98916.47;;;11.35;81.59
77590;BME280;66746;51.328;12.332;2023-04-01T13:45:24;98915.22;;;11.26;81.21
77590;BME280;66746;51.328;12.332;2023-04-01T13:51:13;98921.78;;;11.22;82.50
77590;BME280;66746;51.328;12.332;2023-04-01T13:53:53;98921.13;;;11.19;81.77
77590;BME280;66746;51.328;12.332;2023-04-01T13:56:34;98916.09;;;11.13;81.62
77590;BME280;66746;51.328;12.332;2023-04-01T14:02:14;98916.66;;;11.04;82.89
77590;BME280;66746;51.328;12.332;2023-04-01T14:04:53;98925.47;;;10.93;80.99
77590;BME280;66746;51.328;12.332;2023-04-01T14:07:44;98914.81;;;10.90;82.27
77590;BME280;66746;51.328;12.332;2023-04-01T14:10:25;98921.81;;;10.94;85.58
77590;BME280;66746;51.328;12.332;2023-04-01T14:13:07;98924.50;;;10.94;84.15
77590;BME280;66746;51.328;12.332;2023-04-01T14:15:42;98920.72;;;10.97;82.74
77590;BME280;66746;51.328;12.332;2023-04-01T14:18:37;98924.03;;;11.02;85.05
77590;BME280;66746;51.328;12.332;2023-04-01T14:21:17;98926.25;;;10.95;84.96
77590;BME280;66746;51.328;12.332;2023-04-01T14:23:55;98932.81;;;10.91;84.54
77590;BME280;66746;51.328;12.332;2023-04-01T14:26:50;98935.13;;;10.83;84.99
77590;BME280;66746;51.328;12.332;2023-04-01T14:29:24;98926.03;;;10.84;85.90
77590;BME280;66746;51.328;12.332;2023-04-01T14:32:03;98926.41;;;10.78;86.40
77590;BME280;66746;51.328;12.332;2023-04-01T14:34:53;98926.59;;;10.75;86.12
77590;BME280;66746;51.328;12.332;2023-04-01T14:37:34;98938.03;;;10.80;85.62
77590;BME280;66746;51.328;12.332;2023-04-01T14:40:19;98938.63;;;10.85;86.16